sensor_id;sensor_type;location;lat;lon;timestamp;pressure;altitude;pressure_sealevel;temperature;humidity
6464;BME280;3265;42.694;23.282;2023-03-21T00:00:29;94506.47;;;12.01;60.75
6464;BME280;3265;42.694;23.282;2023-03-21T00:02:56;94514.75;;;11.98;61.24
6464;BME280;3265;42.694;23.282;2023-03-21T00:05:22;94513.75;;;11.87;61.61
6464;BME280;3265;42.694;23.282;2023-03-21T00:07:49;94520.22;;;11.85;62.03
6464;BME280;3265;42.694;23.282;2023-03-21T00:10:16;94504.34;;;11.75;62.10
6464;BME280;3265;42.694;23.282;2023-03-21T00:12:43;94507.75;;;11.75;62.60
6464;BME280;3265;42.694;23.282;2023-03-21T00:15:12;94508.34;;;11.77;62.83
6464;BME280;3265;42.694;23.282;2023-03-21T00:17:38;94505.41;;;11.74;63.31
6464;BME280;3265;42.694;23.282;2023-03-21T00:20:06;94503.81;;;11.73;63.80
6464;BME280;3265;42.694;23.282;2023-03-21T00:22:39;94504.34;;;11.75;64.02
6464;BME280;3265;42.694;23.282;2023-03-21T00:25:07;94497.13;;;11.77;64.51
6464;BME280;3265;42.694;23.282;2023-03-21T00:27:36;94499.03;;;11.81;64.13
6464;BME280;3265;42.694;23.282;2023-03-21T00:30:03;94485.34;;;11.63;63.89
6464;BME280;3265;42.694;23.282;2023-03-21T00:32:32;94501.66;;;11.81;63.34
6464;BME280;3265;42.694;23.282;2023-03-21T00:34:59;94505.75;;;11.77;63.13
6464;BME280;3265;42.694;23.282;2023-03-21T00:37:26;94484.66;;;11.67;63.20
6464;BME280;3265;42.694;23.282;2023-03-21T00:39:53;94496.66;;;11.68;62.92
6464;BME280;3265;42.694;23.282;2023-03-21T00:42:20;94496.78;;;11.62;63.21
6464;BME280;3265;42.694;23.282;2023-03-21T00:44:46;94498.94;;;11.53;63.81
6464;BME280;3265;42.694;23.282;2023-03-21T00:47:13;94500.03;;;11.57;63.82
6464;BME280;3265;42.694;23.282;2023-03-21T00:49:41;94494.38;;;11.60;63.95
6464;BME280;3265;42.694;23.282;2023-03-21T00:52:09;94492.03;;;11.59;64.04
6464;BME280;3265;42.694;23.282;2023-03-21T00:54:36;94487.38;;;11.49;64.44
6464;BME280;3265;42.694;23.282;2023-03-21T00:57:03;94481.50;;;11.54;64.72
6464;BME280;3265;42.694;23.282;2023-03-21T00:59:30;94492.59;;;11.49;65.10
6464;BME280;3265;42.694;23.282;2023-03-21T01:01:57;94492.47;;;11.44;65.06
6464;BME280;3265;42.694;23.282;2023-03-21T01:04:26;94485.38;;;11.39;64.42
6464;BME280;3265;42.694;23.282;2023-03-21T01:06:54;94481.63;;;11.35;64.14
6464;BME280;3265;42.694;23.282;2023-03-21T01:09:22;94479.00;;;11.24;64.62
6464;BME280;3265;42.694;23.282;2023-03-21T01:11:50;94483.09;;;11.31;64.56
6464;BME280;3265;42.694;23.282;2023-03-21T01:14:18;94469.06;;;11.21;65.16
6464;BME280;3265;42.694;23.282;2023-03-21T01:16:48;94481.97;;;11.27;65.07
6464;BME280;3265;42.694;23.282;2023-03-21T01:19:17;94484.44;;;11.11;64.99
6464;BME280;3265;42.694;23.282;2023-03-21T01:21:44;94473.91;;;11.06;65.42
6464;BME280;3265;42.694;23.282;2023-03-21T01:24:12;94471.44;;;10.99;65.79
6464;BME280;3265;42.694;23.282;2023-03-21T01:26:40;94483.66;;;11.10;66.01
6464;BME280;3265;42.694;23.282;2023-03-21T01:29:06;94482.63;;;11.11;66.92
6464;BME280;3265;42.694;23.282;2023-03-21T01:31:33;94450.72;;;10.81;66.54
6464;BME280;3265;42.694;23.282;2023-03-21T01:34:00;94476.84;;;10.98;66.58
6464;BME280;3265;42.694;23.282;2023-03-21T01:36:27;94483.28;;;10.95;66.50
6464;BME280;3265;42.694;23.282;2023-03-21T01:38:54;94480.81;;;11.00;67.10
6464;BME280;3265;42.694;23.282;2023-03-21T01:41:39;94484.56;;;11.04;67.91
6464;BME280;3265;42.694;23.282;2023-03-21T01:44:10;94482.50;;;11.06;67.94
6464;BME280;3265;42.694;23.282;2023-03-21T01:46:41;94483.88;;;11.09;68.28
6464;BME280;3265;42.694;23.282;2023-03-21T01:49:15;94487.06;;;11.11;67.37
6464;BME280;3265;42.694;23.282;2023-03-21T01:51:57;94482.16;;;11.03;67.40
6464;BME280;3265;42.694;23.282;2023-03-21T01:54:29;94484.44;;;10.99;67.69
6464;BME280;3265;42.694;23.282;2023-03-21T01:57:02;94477.84;;;10.97;67.31
6464;BME280;3265;42.694;23.282;2023-03-21T01:59:33;94465.44;;;10.87;66.89
6464;BME280;3265;42.694;23.282;2023-03-21T02:02:03;94467.56;;;10.90;67.61
6464;BME280;3265;42.694;23.282;2023-03-21T02:04:40;94442.09;;;10.69;68.17
6464;BME280;3265;42.694;23.282;2023-03-21T02:07:17;94477.06;;;10.85;69.20
6464;BME280;3265;42.694;23.282;2023-03-21T02:09:48;94468.00;;;10.75;69.05
6464;BME280;3265;42.694;23.282;2023-03-21T02:12:17;94466.66;;;10.73;68.95
6464;BME280;3265;42.694;23.282;2023-03-21T02:14:46;94465.59;;;10.62;69.25
6464;BME280;3265;42.694;23.282;2023-03-21T02:17:18;94464.34;;;10.53;70.85
6464;BME280;3265;42.694;23.282;2023-03-21T02:20:16;94456.06;;;10.56;71.19
6464;BME280;3265;42.694;23.282;2023-03-21T02:23:19;94459.91;;;10.54;70.95
6464;BME280;3265;42.694;23.282;2023-03-21T02:26:10;94457.31;;;10.54;70.49
6464;BME280;3265;42.694;23.282;2023-03-21T02:28:47;94464.06;;;10.43;70.86
6464;BME280;3265;42.694;23.282;2023-03-21T02:31:35;94463.16;;;10.38;71.16
6464;BME280;3265;42.694;23.282;2023-03-21T02:37:27;94467.47;;;10.44;71.42
6464;BME280;3265;42.694;23.282;2023-03-21T02:40:06;94465.75;;;10.38;72.18
6464;BME280;3265;42.694;23.282;2023-03-21T02:42:45;94449.34;;;10.25;72.34
6464;BME280;3265;42.694;23.282;2023-03-21T02:45:17;94461.66;;;10.30;72.31
6464;BME280;3265;42.694;23.282;2023-03-21T02:47:47;94458.13;;;10.24;73.44
6464;BME280;3265;42.694;23.282;2023-03-21T02:50:20;94457.28;;;10.12;74.08
6464;BME280;3265;42.694;23.282;2023-03-21T02:52:52;94460.25;;;10.16;74.61
6464;BME280;3265;42.694;23.282;2023-03-21T02:55:23;94457.78;;;10.21;74.61
6464;BME280;3265;42.694;23.282;2023-03-21T02:57:52;94440.06;;;10.00;75.50
6464;BME280;3265;42.694;23.282;2023-03-21T03:00:22;94454.69;;;10.12;74.99
6464;BME280;3265;42.694;23.282;2023-03-21T03:02:51;94456.78;;;10.04;74.89
6464;BME280;3265;42.694;23.282;2023-03-21T03:05:21;94454.19;;;10.04;75.68
6464;BME280;3265;42.694;23.282;2023-03-21T03:08:10;94461.75;;;10.05;76.47
6464;BME280;3265;42.694;23.282;2023-03-21T03:10:48;94457.72;;;10.09;75.99
6464;BME280;3265;42.694;23.282;2023-03-21T03:13:29;94456.63;;;9.99;76.81
6464;BME280;3265;42.694;23.282;2023-03-21T03:16:06;94452.31;;;9.93;76.64
6464;BME280;3265;42.694;23.282;2023-03-21T03:18:43;94467.88;;;9.93;76.03
6464;BME280;3265;42.694;23.282;2023-03-21T03:21:18;94459.34;;;9.92;76.34
6464;BME280;3265;42.694;23.282;2023-03-21T03:23:49;94469.06;;;9.79;76.24
6464;BME280;3265;42.694;23.282;2023-03-21T03:26:20;94447.28;;;9.61;76.78
6464;BME280;3265;42.694;23.282;2023-03-21T03:28:51;94453.34;;;9.74;76.85
6464;BME280;3265;42.694;23.282;2023-03-21T03:31:22;94455.44;;;9.65;77.22
6464;BME280;3265;42.694;23.282;2023-03-21T03:33:53;94456.84;;;9.49;78.08
6464;BME280;3265;42.694;23.282;2023-03-21T03:36:23;94463.94;;;9.54;78.46
6464;BME280;3265;42.694;23.282;2023-03-21T03:38:55;94451.72;;;9.43;79.12
6464;BME280;3265;42.694;23.282;2023-03-21T03:41:25;94465.63;;;9.48;79.28
6464;BME280;3265;42.694;23.282;2023-03-21T03:43:54;94462.16;;;9.54;79.38
6464;BME280;3265;42.694;23.282;2023-03-21T03:46:27;94462.34;;;9.53;79.70
6464;BME280;3265;42.694;23.282;2023-03-21T03:48:58;94464.88;;;9.41;80.89
6464;BME280;3265;42.694;23.282;2023-03-21T03:51:31;94453.00;;;9.34;80.31
6464;BME280;3265;42.694;23.282;2023-03-21T03:54:03;94455.63;;;9.27;78.75
6464;BME280;3265;42.694;23.282;2023-03-21T03:56:31;94464.50;;;9.20;78.96
6464;BME280;3265;42.694;23.282;2023-03-21T03:59:00;94458.00;;;9.10;79.00
6464;BME280;3265;42.694;23.282;2023-03-21T04:01:28;94459.94;;;9.15;79.53
6464;BME280;3265;42.694;23.282;2023-03-21T04:03:55;94455.97;;;9.12;79.69
6464;BME280;3265;42.694;23.282;2023-03-21T04:06:22;94459.09;;;9.21;80.30
6464;BME280;3265;42.694;23.282;2023-03-21T04:08:49;94459.50;;;9.18;80.87
6464;BME280;3265;42.694;23.282;2023-03-21T04:11:17;94436.31;;;9.05;80.71
6464;BME280;3265;42.694;23.282;2023-03-21T04:13:44;94452.53;;;9.19;80.97
6464;BME280;3265;42.694;23.282;2023-03-21T04:16:11;94459.09;;;9.21;80.59
6464;BME280;3265;42.694;23.282;2023-03-21T04:18:38;94448.00;;;9.14;81.29
6464;BME280;3265;42.694;23.282;2023-03-21T04:21:08;94449.13;;;9.18;81.20
6464;BME280;3265;42.694;23.282;2023-03-21T04:23:35;94443.19;;;9.18;80.88
6464;BME280;3265;42.694;23.282;2023-03-21T04:26:03;94446.97;;;9.15;80.97
6464;BME280;3265;42.694;23.282;2023-03-21T04:28:32;94441.03;;;9.15;80.43
6464;BME280;3265;42.694;23.282;2023-03-21T04:31:00;94410.06;;;8.95;80.35
6464;BME280;3265;42.694;23.282;2023-03-21T04:33:27;94415.34;;;8.88;81.29
6464;BME280;3265;42.694;23.282;2023-03-21T04:35:54;94448.06;;;9.07;82.59
6464;BME280;3265;42.694;23.282;2023-03-21T04:38:24;94451.59;;;9.13;81.68
6464;BME280;3265;42.694;23.282;2023-03-21T04:40:55;94451.06;;;9.04;81.94
6464;BME280;3265;42.694;23.282;2023-03-21T04:43:22;94447.75;;;8.97;82.33
6464;BME280;3265;42.694;23.282;2023-03-21T04:45:51;94442.25;;;8.87;83.77
6464;BME280;3265;42.694;23.282;2023-03-21T04:48:18;94456.31;;;8.98;82.80
6464;BME280;3265;42.694;23.282;2023-03-21T04:50:48;94455.88;;;9.01;82.29
6464;BME280;3265;42.694;23.282;2023-03-21T04:53:15;94457.75;;;8.94;82.36
6464;BME280;3265;42.694;23.282;2023-03-21T04:55:42;94455.03;;;9.07;81.54
6464;BME280;3265;42.694;23.282;2023-03-21T04:58:09;94451.19;;;8.91;82.05
6464;BME280;3265;42.694;23.282;2023-03-21T05:00:36;94454.13;;;8.95;82.34
6464;BME280;3265;42.694;23.282;2023-03-21T05:03:04;94462.09;;;9.00;81.58
6464;BME280;3265;42.694;23.282;2023-03-21T05:05:34;94457.66;;;9.00;81.44
6464;BME280;3265;42.694;23.282;2023-03-21T05:08:04;94452.34;;;8.95;80.90
6464;BME280;3265;42.694;23.282;2023-03-21T05:10:32;94463.59;;;9.07;79.59
6464;BME280;3265;42.694;23.282;2023-03-21T05:12:58;94467.56;;;9.10;80.67
6464;BME280;3265;42.694;23.282;2023-03-21T05:15:25;94465.78;;;9.10;80.01
6464;BME280;3265;42.694;23.282;2023-03-21T05:17:52;94462.84;;;9.00;80.37
6464;BME280;3265;42.694;23.282;2023-03-21T05:20:21;94456.59;;;8.90;81.72
6464;BME280;3265;42.694;23.282;2023-03-21T05:22:47;94463.44;;;8.78;81.56
6464;BME280;3265;42.694;23.282;2023-03-21T05:25:16;94466.47;;;8.75;82.14
6464;BME280;3265;42.694;23.282;2023-03-21T05:27:59;94468.94;;;8.63;81.93
6464;BME280;3265;42.694;23.282;2023-03-21T05:30:27;94469.34;;;8.60;82.36
6464;BME280;3265;42.694;23.282;2023-03-21T05:32:54;94469.16;;;8.62;82.98
6464;BME280;3265;42.694;23.282;2023-03-21T05:35:22;94472.31;;;8.64;83.67
6464;BME280;3265;42.694;23.282;2023-03-21T05:37:49;94476.28;;;8.66;82.27
6464;BME280;3265;42.694;23.282;2023-03-21T05:40:16;94473.88;;;8.71;81.94
6464;BME280;3265;42.694;23.282;2023-03-21T05:42:44;94465.69;;;8.74;81.46
6464;BME280;3265;42.694;23.282;2023-03-21T05:45:11;94457.28;;;8.79;81.66
6464;BME280;3265;42.694;23.282;2023-03-21T05:47:38;94464.72;;;8.93;81.80
6464;BME280;3265;42.694;23.282;2023-03-21T05:50:06;94460.06;;;9.02;81.22
6464;BME280;3265;42.694;23.282;2023-03-21T05:52:34;94452.06;;;9.03;82.44
6464;BME280;3265;42.694;23.282;2023-03-21T05:55:01;94455.78;;;9.14;82.93
6464;BME280;3265;42.694;23.282;2023-03-21T05:57:28;94443.69;;;9.26;83.20
6464;BME280;3265;42.694;23.282;2023-03-21T05:59:55;94438.66;;;9.31;81.85
6464;BME280;3265;42.694;23.282;2023-03-21T06:02:22;94445.44;;;9.50;79.97
6464;BME280;3265;42.694;23.282;2023-03-21T06:04:48;94443.78;;;9.56;79.44
6464;BME280;3265;42.694;23.282;2023-03-21T06:07:15;94446.50;;;9.61;79.53
6464;BME280;3265;42.694;23.282;2023-03-21T06:09:44;94445.69;;;9.79;79.04
6464;BME280;3265;42.694;23.282;2023-03-21T06:12:11;94451.81;;;9.84;78.19
6464;BME280;3265;42.694;23.282;2023-03-21T06:14:39;94436.25;;;9.84;78.60
6464;BME280;3265;42.694;23.282;2023-03-21T06:17:06;94439.94;;;9.95;78.21
6464;BME280;3265;42.694;23.282;2023-03-21T06:19:33;94433.00;;;10.07;78.04
6464;BME280;3265;42.694;23.282;2023-03-21T06:22:00;94433.28;;;10.17;77.16
6464;BME280;3265;42.694;23.282;2023-03-21T06:24:26;94437.38;;;10.36;77.43
6464;BME280;3265;42.694;23.282;2023-03-21T06:26:55;94439.91;;;10.43;77.69
6464;BME280;3265;42.694;23.282;2023-03-21T06:29:21;94430.34;;;10.55;77.70
6464;BME280;3265;42.694;23.282;2023-03-21T06:31:48;94428.47;;;10.73;76.38
6464;BME280;3265;42.694;23.282;2023-03-21T06:34:15;94432.06;;;10.84;75.56
6464;BME280;3265;42.694;23.282;2023-03-21T06:36:42;94436.50;;;10.95;74.65
6464;BME280;3265;42.694;23.282;2023-03-21T06:39:11;94434.25;;;11.10;73.64
6464;BME280;3265;42.694;23.282;2023-03-21T06:41:38;94435.03;;;11.22;71.68
6464;BME280;3265;42.694;23.282;2023-03-21T06:44:06;94443.16;;;11.26;71.37
6464;BME280;3265;42.694;23.282;2023-03-21T06:46:33;94449.72;;;11.28;72.05
6464;BME280;3265;42.694;23.282;2023-03-21T06:49:00;94450.50;;;11.40;72.28
6464;BME280;3265;42.694;23.282;2023-03-21T06:51:27;94456.16;;;11.49;71.18
6464;BME280;3265;42.694;23.282;2023-03-21T06:53:53;94453.78;;;11.59;70.59
6464;BME280;3265;42.694;23.282;2023-03-21T06:56:20;94458.75;;;11.72;69.09
6464;BME280;3265;42.694;23.282;2023-03-21T06:58:47;94465.19;;;11.81;69.39
6464;BME280;3265;42.694;23.282;2023-03-21T07:01:15;94458.59;;;11.90;68.96
6464;BME280;3265;42.694;23.282;2023-03-21T07:03:42;94452.03;;;12.00;67.26
6464;BME280;3265;42.694;23.282;2023-03-21T07:06:10;94462.41;;;12.11;67.31
6464;BME280;3265;42.694;23.282;2023-03-21T07:08:38;94462.03;;;12.19;66.11
6464;BME280;3265;42.694;23.282;2023-03-21T07:11:05;94437.91;;;12.12;64.82
6464;BME280;3265;42.694;23.282;2023-03-21T07:13:33;94459.13;;;12.32;64.93
6464;BME280;3265;42.694;23.282;2023-03-21T07:15:59;94469.50;;;12.44;64.36
6464;BME280;3265;42.694;23.282;2023-03-21T07:18:28;94473.25;;;12.48;62.95
6464;BME280;3265;42.694;23.282;2023-03-21T07:20:56;94462.34;;;12.51;61.65
6464;BME280;3265;42.694;23.282;2023-03-21T07:23:25;94472.78;;;12.51;61.56
6464;BME280;3265;42.694;23.282;2023-03-21T07:25:53;94473.44;;;12.58;60.34
6464;BME280;3265;42.694;23.282;2023-03-21T07:28:21;94469.09;;;12.64;60.81
6464;BME280;3265;42.694;23.282;2023-03-21T07:30:52;94462.63;;;12.66;60.93
6464;BME280;3265;42.694;23.282;2023-03-21T07:33:19;94460.88;;;12.72;60.09
6464;BME280;3265;42.694;23.282;2023-03-21T07:35:48;94463.81;;;12.75;59.58
6464;BME280;3265;42.694;23.282;2023-03-21T07:38:15;94458.22;;;12.83;59.27
6464;BME280;3265;42.694;23.282;2023-03-21T07:40:42;94469.13;;;12.97;59.60
6464;BME280;3265;42.694;23.282;2023-03-21T07:43:09;94479.50;;;13.08;58.77
6464;BME280;3265;42.694;23.282;2023-03-21T07:45:36;94475.69;;;13.16;58.78
6464;BME280;3265;42.694;23.282;2023-03-21T07:48:03;94468.97;;;13.20;58.02
6464;BME280;3265;42.694;23.282;2023-03-21T07:50:30;94466.16;;;13.22;57.73
6464;BME280;3265;42.694;23.282;2023-03-21T07:53:00;94467.16;;;13.37;57.62
6464;BME280;3265;42.694;23.282;2023-03-21T07:55:27;94475.03;;;13.42;57.55
6464;BME280;3265;42.694;23.282;2023-03-21T07:57:54;94470.69;;;13.48;57.70
6464;BME280;3265;42.694;23.282;2023-03-21T08:00:21;94469.72;;;13.54;56.01
6464;BME280;3265;42.694;23.282;2023-03-21T08:02:49;94476.00;;;13.53;56.15
6464;BME280;3265;42.694;23.282;2023-03-21T08:05:20;94472.97;;;13.61;56.45
6464;BME280;3265;42.694;23.282;2023-03-21T08:07:47;94475.16;;;13.69;55.09
6464;BME280;3265;42.694;23.282;2023-03-21T08:10:16;94476.06;;;13.80;54.56
6464;BME280;3265;42.694;23.282;2023-03-21T08:12:45;94470.38;;;13.83;54.34
6464;BME280;3265;42.694;23.282;2023-03-21T08:15:13;94474.78;;;13.99;53.91
6464;BME280;3265;42.694;23.282;2023-03-21T08:17:41;94465.34;;;13.98;53.85
6464;BME280;3265;42.694;23.282;2023-03-21T08:20:12;94471.25;;;14.10;52.82
6464;BME280;3265;42.694;23.282;2023-03-21T08:22:40;94470.97;;;14.11;53.19
6464;BME280;3265;42.694;23.282;2023-03-21T08:25:09;94471.28;;;14.15;52.18
6464;BME280;3265;42.694;23.282;2023-03-21T08:27:39;94464.19;;;14.10;52.57
6464;BME280;3265;42.694;23.282;2023-03-21T08:30:08;94459.34;;;14.19;52.41
6464;BME280;3265;42.694;23.282;2023-03-21T08:32:36;94450.91;;;14.17;52.67
6464;BME280;3265;42.694;23.282;2023-03-21T08:35:04;94457.94;;;14.33;51.99
6464;BME280;3265;42.694;23.282;2023-03-21T08:37:34;94462.69;;;14.36;51.91
6464;BME280;3265;42.694;23.282;2023-03-21T08:40:01;94461.13;;;14.40;51.86
6464;BME280;3265;42.694;23.282;2023-03-21T08:42:31;94457.81;;;14.45;51.57
6464;BME280;3265;42.694;23.282;2023-03-21T08:44:59;94470.91;;;14.50;51.71
6464;BME280;3265;42.694;23.282;2023-03-21T08:47:26;94463.88;;;14.50;51.59
6464;BME280;3265;42.694;23.282;2023-03-21T08:49:53;94462.59;;;14.53;51.67
6464;BME280;3265;42.694;23.282;2023-03-21T08:52:20;94460.81;;;14.58;51.86
6464;BME280;3265;42.694;23.282;2023-03-21T08:54:47;94462.13;;;14.61;51.82
6464;BME280;3265;42.694;23.282;2023-03-21T08:57:14;94464.56;;;14.67;50.87
6464;BME280;3265;42.694;23.282;2023-03-21T08:59:40;94460.16;;;14.73;50.78
6464;BME280;3265;42.694;23.282;2023-03-21T09:02:10;94461.50;;;14.75;50.94
6464;BME280;3265;42.694;23.282;2023-03-21T09:04:39;94449.50;;;14.80;49.72
6464;BME280;3265;42.694;23.282;2023-03-21T09:07:05;94451.06;;;14.81;49.96
6464;BME280;3265;42.694;23.282;2023-03-21T09:09:35;94450.50;;;14.73;50.19
6464;BME280;3265;42.694;23.282;2023-03-21T09:12:02;94441.66;;;14.80;50.03
6464;BME280;3265;42.694;23.282;2023-03-21T09:14:28;94439.84;;;14.80;49.80
6464;BME280;3265;42.694;23.282;2023-03-21T09:16:55;94448.50;;;14.86;49.55
6464;BME280;3265;42.694;23.282;2023-03-21T09:19:24;94437.53;;;14.89;49.45
6464;BME280;3265;42.694;23.282;2023-03-21T09:21:52;94430.53;;;14.94;50.11
6464;BME280;3265;42.694;23.282;2023-03-21T09:24:20;94428.47;;;15.01;49.82
6464;BME280;3265;42.694;23.282;2023-03-21T09:26:47;94424.84;;;15.07;49.07
6464;BME280;3265;42.694;23.282;2023-03-21T09:29:16;94427.78;;;15.16;49.50
6464;BME280;3265;42.694;23.282;2023-03-21T09:31:43;94414.50;;;15.22;49.19
6464;BME280;3265;42.694;23.282;2023-03-21T09:34:11;94417.44;;;15.36;48.91
6464;BME280;3265;42.694;23.282;2023-03-21T09:36:40;94417.75;;;15.45;48.59
6464;BME280;3265;42.694;23.282;2023-03-21T09:39:08;94411.50;;;15.46;48.26
6464;BME280;3265;42.694;23.282;2023-03-21T09:41:48;94409.22;;;15.54;48.23
6464;BME280;3265;42.694;23.282;2023-03-21T09:44:27;94405.31;;;15.62;48.83
6464;BME280;3265;42.694;23.282;2023-03-21T09:47:02;94400.03;;;15.52;49.19
6464;BME280;3265;42.694;23.282;2023-03-21T09:49:34;94397.94;;;15.54;49.13
6464;BME280;3265;42.694;23.282;2023-03-21T09:52:10;94399.53;;;15.55;48.72
6464;BME280;3265;42.694;23.282;2023-03-21T09:54:41;94415.25;;;15.55;48.51
6464;BME280;3265;42.694;23.282;2023-03-21T09:57:15;94405.59;;;15.60;48.52
6464;BME280;3265;42.694;23.282;2023-03-21T09:59:47;94397.72;;;15.60;48.40
6464;BME280;3265;42.694;23.282;2023-03-21T10:02:34;94395.63;;;15.62;48.70
6464;BME280;3265;42.694;23.282;2023-03-21T10:05:12;94393.81;;;15.73;48.63
6464;BME280;3265;42.694;23.282;2023-03-21T10:07:50;94392.06;;;15.88;48.12
6464;BME280;3265;42.694;23.282;2023-03-21T10:10:21;94393.69;;;16.05;47.42
6464;BME280;3265;42.694;23.282;2023-03-21T10:12:52;94383.00;;;16.21;46.41
6464;BME280;3265;42.694;23.282;2023-03-21T10:15:22;94389.59;;;16.49;45.92
6464;BME280;3265;42.694;23.282;2023-03-21T10:17:56;94371.25;;;16.74;45.64
6464;BME280;3265;42.694;23.282;2023-03-21T10:20:25;94373.34;;;17.18;45.18
6464;BME280;3265;42.694;23.282;2023-03-21T10:22:54;94379.81;;;17.61;43.66
6464;BME280;3265;42.694;23.282;2023-03-21T10:25:27;94369.94;;;18.01;43.01
6464;BME280;3265;42.694;23.282;2023-03-21T10:27:56;94381.03;;;18.42;42.30
6464;BME280;3265;42.694;23.282;2023-03-21T10:30:33;94388.06;;;18.96;40.64
6464;BME280;3265;42.694;23.282;2023-03-21T10:33:02;94385.94;;;19.26;39.94
6464;BME280;3265;42.694;23.282;2023-03-21T10:35:30;94384.16;;;19.51;39.46
6464;BME280;3265;42.694;23.282;2023-03-21T10:38:00;94382.97;;;19.62;38.88
6464;BME280;3265;42.694;23.282;2023-03-21T10:40:27;94370.78;;;19.42;37.84
6464;BME280;3265;42.694;23.282;2023-03-21T10:42:54;94395.94;;;19.58;37.83
6464;BME280;3265;42.694;23.282;2023-03-21T10:45:22;94388.63;;;19.50;37.10
6464;BME280;3265;42.694;23.282;2023-03-21T10:47:50;94383.63;;;19.49;36.75
6464;BME280;3265;42.694;23.282;2023-03-21T10:50:18;94394.16;;;19.49;36.64
6464;BME280;3265;42.694;23.282;2023-03-21T10:52:52;94387.41;;;19.38;36.78
6464;BME280;3265;42.694;23.282;2023-03-21T10:55:27;94385.75;;;19.47;36.83
6464;BME280;3265;42.694;23.282;2023-03-21T10:57:57;94381.94;;;19.58;36.54
6464;BME280;3265;42.694;23.282;2023-03-21T11:00:28;94386.56;;;19.71;36.36
6464;BME280;3265;42.694;23.282;2023-03-21T11:02:56;94372.97;;;19.83;36.56
6464;BME280;3265;42.694;23.282;2023-03-21T11:05:26;94364.63;;;19.75;36.03
6464;BME280;3265;42.694;23.282;2023-03-21T11:08:02;94365.50;;;19.66;35.91
6464;BME280;3265;42.694;23.282;2023-03-21T11:10:34;94369.03;;;19.80;35.37
6464;BME280;3265;42.694;23.282;2023-03-21T11:13:06;94353.59;;;19.92;36.09
6464;BME280;3265;42.694;23.282;2023-03-21T11:15:40;94358.81;;;20.16;35.46
6464;BME280;3265;42.694;23.282;2023-03-21T11:18:16;94352.38;;;20.27;36.09
6464;BME280;3265;42.694;23.282;2023-03-21T11:20:53;94345.22;;;20.46;34.63
6464;BME280;3265;42.694;23.282;2023-03-21T11:23:25;94352.06;;;20.66;34.51
6464;BME280;3265;42.694;23.282;2023-03-21T11:25:54;94352.41;;;20.78;34.13
6464;BME280;3265;42.694;23.282;2023-03-21T11:28:24;94351.66;;;20.91;33.97
6464;BME280;3265;42.694;23.282;2023-03-21T11:30:54;94334.78;;;21.06;33.70
6464;BME280;3265;42.694;23.282;2023-03-21T11:33:24;94339.22;;;21.10;33.44
6464;BME280;3265;42.694;23.282;2023-03-21T11:36:03;94329.06;;;20.99;33.30
6464;BME280;3265;42.694;23.282;2023-03-21T11:38:35;94322.19;;;20.84;34.01
6464;BME280;3265;42.694;23.282;2023-03-21T11:41:05;94329.22;;;20.75;34.10
6464;BME280;3265;42.694;23.282;2023-03-21T11:43:37;94322.31;;;20.60;34.22
6464;BME280;3265;42.694;23.282;2023-03-21T11:46:07;94325.28;;;20.40;34.36
6464;BME280;3265;42.694;23.282;2023-03-21T11:48:38;94309.91;;;20.05;35.33
6464;BME280;3265;42.694;23.282;2023-03-21T11:51:11;94317.75;;;20.10;35.30
6464;BME280;3265;42.694;23.282;2023-03-21T11:53:47;94312.47;;;19.91;35.39
6464;BME280;3265;42.694;23.282;2023-03-21T11:56:23;94318.88;;;19.85;35.31
6464;BME280;3265;42.694;23.282;2023-03-21T12:04:53;94304.28;;;19.69;35.59
6464;BME280;3265;42.694;23.282;2023-03-21T12:07:46;94296.44;;;19.64;35.11
6464;BME280;3265;42.694;23.282;2023-03-21T12:10:28;94296.38;;;19.50;35.13
6464;BME280;3265;42.694;23.282;2023-03-21T12:13:06;94288.03;;;19.38;35.50
6464;BME280;3265;42.694;23.282;2023-03-21T12:15:39;94282.81;;;19.33;34.97
6464;BME280;3265;42.694;23.282;2023-03-21T12:18:15;94285.72;;;19.32;35.69
6464;BME280;3265;42.694;23.282;2023-03-21T12:20:51;94284.75;;;19.22;35.03
6464;BME280;3265;42.694;23.282;2023-03-21T12:23:49;94280.44;;;19.08;35.70
6464;BME280;3265;42.694;23.282;2023-03-21T12:26:25;94276.50;;;19.10;35.82
6464;BME280;3265;42.694;23.282;2023-03-21T12:29:08;94271.97;;;19.11;35.92
6464;BME280;3265;42.694;23.282;2023-03-21T12:31:47;94266.53;;;19.02;35.99
6464;BME280;3265;42.694;23.282;2023-03-21T12:34:28;94267.63;;;19.01;35.79
6464;BME280;3265;42.694;23.282;2023-03-21T12:37:08;94268.13;;;19.03;34.68
6464;BME280;3265;42.694;23.282;2023-03-21T12:39:39;94256.31;;;19.01;34.88
6464;BME280;3265;42.694;23.282;2023-03-21T12:42:37;94262.06;;;19.03;34.70
6464;BME280;3265;42.694;23.282;2023-03-21T12:45:14;94262.19;;;18.93;35.53
6464;BME280;3265;42.694;23.282;2023-03-21T12:47:46;94256.75;;;18.79;35.92
6464;BME280;3265;42.694;23.282;2023-03-21T12:50:18;94257.13;;;18.67;35.99
6464;BME280;3265;42.694;23.282;2023-03-21T12:52:51;94251.59;;;18.69;36.30
6464;BME280;3265;42.694;23.282;2023-03-21T12:55:22;94251.56;;;18.74;36.19
6464;BME280;3265;42.694;23.282;2023-03-21T12:57:52;94234.41;;;18.77;36.31
6464;BME280;3265;42.694;23.282;2023-03-21T13:00:25;94244.25;;;18.95;35.87
6464;BME280;3265;42.694;23.282;2023-03-21T13:02:56;94237.41;;;18.94;35.83
6464;BME280;3265;42.694;23.282;2023-03-21T13:05:27;94227.31;;;18.77;36.02
6464;BME280;3265;42.694;23.282;2023-03-21T13:08:00;94233.25;;;18.88;36.39
6464;BME280;3265;42.694;23.282;2023-03-21T13:10:29;94226.69;;;18.85;35.80
6464;BME280;3265;42.694;23.282;2023-03-21T13:13:09;94229.25;;;18.66;35.93
6464;BME280;3265;42.694;23.282;2023-03-21T13:15:54;94213.31;;;18.53;36.53
6464;BME280;3265;42.694;23.282;2023-03-21T13:18:32;94228.06;;;18.54;36.82
6464;BME280;3265;42.694;23.282;2023-03-21T13:21:08;94219.09;;;18.55;36.41
6464;BME280;3265;42.694;23.282;2023-03-21T13:23:38;94222.28;;;18.52;36.36
6464;BME280;3265;42.694;23.282;2023-03-21T13:26:07;94214.19;;;18.43;37.16
6464;BME280;3265;42.694;23.282;2023-03-21T13:28:38;94221.00;;;18.49;37.36
6464;BME280;3265;42.694;23.282;2023-03-21T13:31:27;94211.53;;;18.43;37.71
6464;BME280;3265;42.694;23.282;2023-03-21T13:33:58;94210.84;;;18.33;37.19
6464;BME280;3265;42.694;23.282;2023-03-21T13:36:27;94211.97;;;18.27;37.16
6464;BME280;3265;42.694;23.282;2023-03-21T13:38:59;94204.09;;;18.22;37.48